createdAt,value
2023-01-17T00:01:08.097Z,97630.13
2023-01-17T00:03:10.046Z,97638.50
2023-01-17T00:05:30.675Z,97643.03
2023-01-17T00:08:02.036Z,97633.56
2023-01-17T00:10:13.266Z,97633.75
2023-01-17T00:12:15.158Z,97621.00
2023-01-17T00:14:17.127Z,97627.31
2023-01-17T00:16:18.989Z,97625.16
2023-01-17T00:18:21.381Z,97617.88
2023-01-17T00:20:44.483Z,97609.81
2023-01-17T00:23:04.954Z,97622.47
2023-01-17T00:25:36.175Z,97633.44
2023-01-17T00:27:38.120Z,97629.69
2023-01-17T00:29:40.265Z,97626.22
2023-01-17T00:31:42.125Z,97625.91
2023-01-17T00:33:44.093Z,97632.13
2023-01-17T00:35:46.306Z,97636.44
2023-01-17T00:37:48.358Z,97633.97
2023-01-17T00:39:50.157Z,97624.06
2023-01-17T00:41:52.255Z,97633.97
2023-01-17T00:44:12.865Z,97630.88
2023-01-17T00:46:34.053Z,97625.50
2023-01-17T00:48:55.400Z,97626.13
2023-01-17T00:51:15.750Z,97630.44
2023-01-17T00:53:36.304Z,97609.03
2023-01-17T00:55:56.628Z,97610.75
2023-01-17T00:58:17.212Z,97607.94
2023-01-17T01:00:37.895Z,97606.34
2023-01-17T01:02:58.929Z,97611.09
2023-01-17T01:05:19.432Z,97605.72
2023-01-17T01:07:41.112Z,97601.84
2023-01-17T01:10:01.845Z,97598.63
2023-01-17T01:12:22.448Z,97604.31
2023-01-17T01:14:43.065Z,97609.94
2023-01-17T01:17:03.993Z,97608.41
2023-01-17T01:19:24.580Z,97609.59
2023-01-17T01:21:45.082Z,97603.59
2023-01-17T01:24:05.741Z,97605.19
2023-01-17T01:26:26.424Z,97601.34
2023-01-17T01:28:47.067Z,97600.56
2023-01-17T01:31:07.512Z,97593.38
2023-01-17T01:33:20.687Z,97582.63
2023-01-17T01:35:23.445Z,97588.63
2023-01-17T01:37:25.298Z,97582.41
2023-01-17T01:39:27.301Z,97594.75
2023-01-17T01:41:29.084Z,97598.75
2023-01-17T01:43:54.535Z,97592.38
2023-01-17T01:45:58.258Z,97595.94
2023-01-17T01:48:22.796Z,97596.03
2023-01-17T01:50:24.701Z,97592.91
2023-01-17T01:52:30.862Z,97590.06
2023-01-17T01:54:42.121Z,97589.16
2023-01-17T01:56:45.614Z,97590.06
2023-01-17T01:58:52.548Z,97583.25
2023-01-17T02:00:54.587Z,97585.94
2023-01-17T02:03:01.393Z,97579.09
2023-01-17T02:05:04.815Z,97575.97
2023-01-17T02:07:12.809Z,97570.72
2023-01-17T02:09:17.637Z,97576.50
2023-01-17T02:11:19.770Z,97578.03
2023-01-17T02:13:21.650Z,97579.41
2023-01-17T02:15:31.677Z,97582.72
2023-01-17T02:18:11.410Z,97570.28
2023-01-17T02:20:28.713Z,97576.41
2023-01-17T02:23:01.563Z,97572.97
2023-01-17T02:25:09.626Z,97567.47
2023-01-17T02:27:26.003Z,97564.44
2023-01-17T02:30:03.083Z,97559.06
2023-01-17T02:32:18.706Z,97552.09
2023-01-17T02:34:33.056Z,97545.22
2023-01-17T02:36:46.067Z,97541.44
2023-01-17T02:38:59.405Z,97535.22
2023-01-17T02:41:15.716Z,97534.78
2023-01-17T02:43:20.196Z,97535.66
2023-01-17T02:45:23.130Z,97537.56
2023-01-17T02:47:28.422Z,97536.09
2023-01-17T02:49:32.479Z,97535.03
2023-01-17T02:51:39.016Z,97534.25
2023-01-17T02:53:50.100Z,97530.41
2023-01-17T02:56:35.819Z,97528.25
2023-01-17T02:58:54.793Z,97518.69
2023-01-17T03:01:25.372Z,97520.31
2023-01-17T03:04:00.804Z,97511.63
2023-01-17T03:06:11.652Z,97510.19
2023-01-17T03:08:14.696Z,97509.47
2023-01-17T03:10:19.699Z,97501.50
2023-01-17T03:12:21.910Z,97514.59
2023-01-17T03:14:24.039Z,97511.25
2023-01-17T03:16:28.998Z,97511.38
2023-01-17T03:18:31.153Z,97505.03
2023-01-17T03:20:33.617Z,97512.00
2023-01-17T03:22:35.587Z,97502.03
2023-01-17T03:24:37.563Z,97498.47
2023-01-17T03:26:39.441Z,97492.78
2023-01-17T03:28:41.433Z,97492.03
2023-01-17T03:30:43.996Z,97497.78
2023-01-17T03:32:46.143Z,97495.09
2023-01-17T03:34:50.101Z,97491.69
2023-01-17T03:36:52.139Z,97496.94
2023-01-17T03:38:54.478Z,97502.31
2023-01-17T03:40:56.687Z,97515.75
2023-01-17T03:42:58.802Z,97516.59
2023-01-17T03:45:00.829Z,97521.25
2023-01-17T03:47:02.835Z,97515.00
2023-01-17T03:49:04.802Z,97520.50
2023-01-17T03:51:06.873Z,97518.16
2023-01-17T03:53:08.872Z,97518.47
2023-01-17T03:55:11.156Z,97509.09
2023-01-17T03:57:13.010Z,97501.25
2023-01-17T03:59:15.361Z,97504.09
2023-01-17T04:01:17.515Z,97504.09
2023-01-17T04:03:19.472Z,97506.78
2023-01-17T04:05:21.464Z,97499.47
2023-01-17T04:07:24.818Z,97502.06
2023-01-17T04:09:26.784Z,97501.19
2023-01-17T04:11:28.772Z,97500.34
2023-01-17T04:13:30.699Z,97495.69
2023-01-17T04:15:33.579Z,97494.28
2023-01-17T04:17:35.623Z,97495.38
2023-01-17T04:19:37.760Z,97486.38
2023-01-17T04:21:39.813Z,97487.09
2023-01-17T04:23:41.861Z,97495.91
2023-01-17T04:25:44.114Z,97488.53
2023-01-17T04:27:46.118Z,97480.56
2023-01-17T04:29:47.952Z,97481.31
2023-01-17T04:31:49.998Z,97486.13
2023-01-17T04:33:52.002Z,97485.69
2023-01-17T04:35:54.746Z,97495.63
2023-01-17T04:37:56.701Z,97472.00
2023-01-17T04:39:58.698Z,97472.53
2023-01-17T04:42:03.029Z,97476.50
2023-01-17T04:44:05.286Z,97482.53
2023-01-17T04:46:10.259Z,97484.91
2023-01-17T04:48:13.104Z,97479.09
2023-01-17T04:50:15.428Z,97483.06
2023-01-17T04:52:19.784Z,97466.53
2023-01-17T04:54:21.692Z,97474.91
2023-01-17T04:56:23.952Z,97464.47
2023-01-17T04:58:26.678Z,97481.22
2023-01-17T05:00:28.705Z,97470.38
2023-01-17T05:02:30.902Z,97470.38
2023-01-17T05:04:32.752Z,97470.06
2023-01-17T05:06:35.228Z,97469.28
2023-01-17T05:08:37.222Z,97459.72
2023-01-17T05:10:39.598Z,97466.31
2023-01-17T05:12:41.481Z,97476.06
2023-01-17T05:14:43.415Z,97470.03
2023-01-17T05:16:45.731Z,97479.72
2023-01-17T05:18:52.602Z,97482.50
2023-01-17T05:20:54.968Z,97477.44
2023-01-17T05:22:59.161Z,97479.56
2023-01-17T05:25:01.189Z,97473.03
2023-01-17T05:27:04.062Z,97487.22
2023-01-17T05:29:06.253Z,97482.91
2023-01-17T05:31:08.345Z,97491.38
2023-01-17T05:33:10.715Z,97490.28
2023-01-17T05:35:12.844Z,97499.75
2023-01-17T05:37:14.965Z,97489.22
2023-01-17T05:39:17.010Z,97510.69
2023-01-17T05:41:19.079Z,97503.41
2023-01-17T05:43:22.245Z,97513.06
2023-01-17T05:45:27.756Z,97531.03
2023-01-17T05:47:29.629Z,97536.06
2023-01-17T05:49:31.575Z,97535.66
2023-01-17T05:51:33.629Z,97540.78
2023-01-17T05:53:35.960Z,97539.19
2023-01-17T05:55:38.675Z,97533.81
2023-01-17T05:57:40.787Z,97548.53
2023-01-17T05:59:42.828Z,97545.22
2023-01-17T06:01:44.731Z,97541.56
2023-01-17T06:03:46.641Z,97549.84
2023-01-17T06:05:48.684Z,97549.09
2023-01-17T06:07:51.064Z,97542.25
2023-01-17T06:09:53.026Z,97538.13
2023-01-17T06:11:55.048Z,97535.59
2023-01-17T06:13:57.093Z,97537.72
2023-01-17T06:16:03.021Z,97556.09
2023-01-17T06:18:10.859Z,97542.34
2023-01-17T06:20:13.455Z,97557.38
2023-01-17T06:22:15.397Z,97551.91
2023-01-17T06:24:17.629Z,97566.97
2023-01-17T06:26:19.782Z,97554.06
2023-01-17T06:28:23.258Z,97550.19
2023-01-17T06:30:25.361Z,97552.78
2023-01-17T06:32:27.269Z,97556.75
2023-01-17T06:34:29.447Z,97565.44
2023-01-17T06:36:33.432Z,97564.59
2023-01-17T06:38:35.399Z,97574.34
2023-01-17T06:40:37.482Z,97568.22
2023-01-17T06:42:39.528Z,97580.03
2023-01-17T06:44:41.453Z,97575.03
2023-01-17T06:46:45.086Z,97577.34
2023-01-17T06:48:48.808Z,97583.47
2023-01-17T06:50:50.998Z,97590.78
2023-01-17T06:53:04.399Z,97585.00
2023-01-17T06:55:07.416Z,97601.44
2023-01-17T06:57:09.267Z,97592.31
2023-01-17T06:59:11.231Z,97591.13
2023-01-17T07:01:13.473Z,97591.22
2023-01-17T07:03:25.723Z,97610.13
2023-01-17T07:05:28.654Z,97606.72
2023-01-17T07:07:33.815Z,97611.41
2023-01-17T07:09:36.131Z,97605.28
2023-01-17T07:11:38.117Z,97625.50
2023-01-17T07:13:40.645Z,97617.22
2023-01-17T07:15:44.839Z,97623.91
2023-01-17T07:17:47.410Z,97626.06
2023-01-17T07:19:49.599Z,97630.13
2023-01-17T07:21:53.358Z,97638.94
2023-01-17T07:23:55.663Z,97643.34
2023-01-17T07:25:59.798Z,97636.03
2023-01-17T07:28:01.905Z,97638.19
2023-01-17T07:30:04.912Z,97662.34
2023-01-17T07:32:08.970Z,97625.59
2023-01-17T07:34:11.122Z,97643.56
2023-01-17T07:36:13.117Z,97639.88
2023-01-17T07:38:17.696Z,97649.47
2023-01-17T07:40:22.402Z,97645.41
2023-01-17T07:42:24.658Z,97650.84
2023-01-17T07:44:28.798Z,97653.44
2023-01-17T07:46:30.780Z,97666.13
2023-01-17T07:48:32.863Z,97671.91
2023-01-17T07:50:34.855Z,97661.06
2023-01-17T07:52:36.939Z,97662.47
2023-01-17T07:54:39.042Z,97659.16
2023-01-17T07:56:45.616Z,97663.84
2023-01-17T07:58:48.885Z,97689.78
2023-01-17T08:00:51.078Z,97672.38
2023-01-17T08:03:02.170Z,97670.13
2023-01-17T08:05:04.492Z,97655.16
2023-01-17T08:07:07.502Z,97669.88
2023-01-17T08:09:09.753Z,97670.41
2023-01-17T08:11:12.180Z,97662.59
2023-01-17T08:13:14.292Z,97665.66
2023-01-17T08:15:17.910Z,97675.34
2023-01-17T08:17:20.703Z,97677.09
2023-01-17T08:19:22.983Z,97682.13
2023-01-17T08:21:25.129Z,97683.00
2023-01-17T08:23:27.366Z,97666.66
2023-01-17T08:25:29.371Z,97679.22
2023-01-17T08:27:31.656Z,97687.59
2023-01-17T08:29:33.787Z,97666.72
2023-01-17T08:31:36.767Z,97670.25
2023-01-17T08:33:38.959Z,97678.31
2023-01-17T08:35:41.618Z,97707.38
2023-01-17T08:37:43.538Z,97707.81
2023-01-17T08:39:45.728Z,97705.59
2023-01-17T08:41:48.125Z,97722.88
2023-01-17T08:43:51.760Z,97700.31
2023-01-17T08:45:56.224Z,97713.75
2023-01-17T08:47:59.441Z,97702.00
2023-01-17T08:50:01.619Z,97716.97
2023-01-17T08:52:03.743Z,97713.84
2023-01-17T08:54:05.919Z,97712.03
2023-01-17T08:56:08.404Z,97697.53
2023-01-17T08:58:10.516Z,97733.75
2023-01-17T09:00:13.145Z,97719.22
2023-01-17T09:02:16.408Z,97724.19
2023-01-17T09:04:18.989Z,97725.81
2023-01-17T09:06:21.679Z,97729.78
2023-01-17T09:08:23.660Z,97730.72
2023-01-17T09:10:25.814Z,97733.53
2023-01-17T09:12:32.714Z,97743.84
2023-01-17T09:14:35.460Z,97754.72
2023-01-17T09:16:37.638Z,97748.25
2023-01-17T09:18:39.738Z,97748.91
2023-01-17T09:20:41.779Z,97757.22
2023-01-17T09:22:45.952Z,97743.53
2023-01-17T09:24:48.471Z,97748.16
2023-01-17T09:26:50.591Z,97747.72
2023-01-17T09:28:53.091Z,97764.38
2023-01-17T09:30:55.389Z,97765.91
2023-01-17T09:32:57.519Z,97756.75
2023-01-17T09:35:01.050Z,97767.28
2023-01-17T09:37:03.327Z,97771.28
2023-01-17T09:39:05.610Z,97768.59
2023-01-17T09:41:22.990Z,97758.91
2023-01-17T09:44:01.483Z,97755.38
2023-01-17T09:46:04.769Z,97741.78
2023-01-17T09:48:14.812Z,97765.03
2023-01-17T09:50:34.441Z,97751.69
2023-01-17T09:52:36.559Z,97740.09
2023-01-17T09:54:41.798Z,97753.09
2023-01-17T09:56:49.663Z,97755.25
2023-01-17T09:59:05.703Z,97748.06
2023-01-17T10:01:45.059Z,97761.81
2023-01-17T10:04:16.057Z,97753.00
2023-01-17T10:06:55.028Z,97765.69
2023-01-17T10:09:18.470Z,97752.13
2023-01-17T10:11:47.224Z,97766.75
2023-01-17T10:13:49.498Z,97760.00
2023-01-17T10:16:17.568Z,97756.00
2023-01-17T10:18:47.965Z,97750.09
2023-01-17T10:20:54.853Z,97762.59
2023-01-17T10:22:59.798Z,97756.44
2023-01-17T10:25:13.420Z,97742.00
2023-01-17T10:27:37.433Z,97746.78
2023-01-17T10:29:41.551Z,97745.25
2023-01-17T10:31:55.941Z,97752.69
2023-01-17T10:34:04.584Z,97724.06
2023-01-17T10:36:15.447Z,97731.81
2023-01-17T10:38:18.466Z,97724.94
2023-01-17T10:40:30.132Z,97732.44
2023-01-17T10:42:57.797Z,97712.53
2023-01-17T10:45:05.870Z,97716.94
2023-01-17T10:47:19.827Z,97733.06
2023-01-17T10:49:25.013Z,97741.91
2023-01-17T10:51:44.902Z,97722.09
2023-01-17T10:54:01.663Z,97734.16
2023-01-17T10:56:04.962Z,97735.44
2023-01-17T10:58:12.761Z,97736.94
2023-01-17T11:00:25.707Z,97736.00
2023-01-17T11:02:35.980Z,97739.00
2023-01-17T11:04:41.351Z,97726.09
2023-01-17T11:06:57.842Z,97749.09
2023-01-17T11:09:07.103Z,97720.78
2023-01-17T11:11:09.911Z,97722.28
2023-01-17T11:13:21.097Z,97724.31
2023-01-17T11:15:26.121Z,97720.44
2023-01-17T11:17:29.893Z,97721.44
2023-01-17T11:19:36.337Z,97732.53
2023-01-17T11:21:40.418Z,97738.00
2023-01-17T11:23:49.671Z,97724.78
2023-01-17T11:26:06.413Z,97735.53
2023-01-17T11:28:23.404Z,97734.91
2023-01-17T11:30:29.521Z,97731.75
2023-01-17T11:32:34.003Z,97727.59
2023-01-17T11:34:36.135Z,97729.16
2023-01-17T11:36:38.220Z,97739.75
2023-01-17T11:38:41.745Z,97726.47
2023-01-17T11:40:48.987Z,97735.13
2023-01-17T11:43:23.057Z,97727.47
2023-01-17T11:45:30.884Z,97712.94
2023-01-17T11:47:32.797Z,97711.00
2023-01-17T11:49:34.946Z,97707.66
2023-01-17T11:51:42.365Z,97707.88
2023-01-17T11:53:48.281Z,97705.31
2023-01-17T11:55:58.360Z,97703.34
2023-01-17T11:58:00.761Z,97705.28
2023-01-17T12:00:33.354Z,97698.06
2023-01-17T12:03:00.152Z,97702.47
2023-01-17T12:05:18.477Z,97701.09
2023-01-17T12:07:20.853Z,97696.13
2023-01-17T12:09:35.240Z,97690.38
2023-01-17T12:12:04.439Z,97690.75
2023-01-17T12:14:20.163Z,97679.84
2023-01-17T12:16:42.367Z,97683.41
2023-01-17T12:19:07.515Z,97686.97
2023-01-17T12:21:16.426Z,97691.47
2023-01-17T12:23:40.678Z,97684.38
2023-01-17T12:26:24.035Z,97685.13
2023-01-17T12:28:54.539Z,97677.41
2023-01-17T12:31:18.652Z,97670.59
2023-01-17T12:33:39.388Z,97680.78
2023-01-17T12:35:53.664Z,97688.22
2023-01-17T12:38:05.994Z,97680.88
2023-01-17T12:40:17.049Z,97691.09
2023-01-17T12:42:24.408Z,97680.97
2023-01-17T12:44:52.958Z,97687.47
2023-01-17T12:47:02.857Z,97683.09
2023-01-17T12:49:21.620Z,97696.31
2023-01-17T12:51:29.807Z,97694.25
2023-01-17T12:53:56.611Z,97694.72
2023-01-17T12:56:26.982Z,97682.50
2023-01-17T12:58:39.868Z,97685.81
2023-01-17T13:00:44.967Z,97679.97
2023-01-17T13:03:15.313Z,97671.53
2023-01-17T13:05:38.386Z,97667.56
2023-01-17T13:07:43.195Z,97661.75
2023-01-17T13:09:52.958Z,97666.16
2023-01-17T13:12:13.256Z,97668.50
2023-01-17T13:14:15.649Z,97673.41
2023-01-17T13:16:51.492Z,97666.66
2023-01-17T13:18:55.308Z,97665.47
2023-01-17T13:21:25.301Z,97676.16
2023-01-17T13:23:45.098Z,97672.97
2023-01-17T13:25:50.916Z,97671.13
2023-01-17T13:28:22.366Z,97675.06
2023-01-17T13:31:05.073Z,97681.91
2023-01-17T13:33:25.566Z,97687.97
2023-01-17T13:35:51.321Z,97684.00
2023-01-17T13:38:14.750Z,97682.69
2023-01-17T13:40:32.944Z,97682.69
2023-01-17T13:42:49.724Z,97686.25
2023-01-17T13:44:52.652Z,97676.06
2023-01-17T13:47:04.774Z,97683.81
2023-01-17T13:49:26.856Z,97678.66
2023-01-17T13:52:10.908Z,97682.56
2023-01-17T13:54:32.616Z,97678.31
2023-01-17T13:56:35.744Z,97681.25
2023-01-17T13:58:50.449Z,97673.53
2023-01-17T14:00:54.923Z,97676.09
2023-01-17T14:02:57.063Z,97677.94
2023-01-17T14:05:18.229Z,97680.72
2023-01-17T14:07:26.425Z,97673.63
2023-01-17T14:09:30.915Z,97668.13
2023-01-17T14:11:35.719Z,97675.38
2023-01-17T14:13:39.220Z,97673.38
2023-01-17T14:15:50.053Z,97681.72
2023-01-17T14:18:03.675Z,97684.66
2023-01-17T14:20:05.522Z,97677.44
2023-01-17T14:22:19.786Z,97675.47
2023-01-17T14:24:22.077Z,97681.13
2023-01-17T14:26:45.278Z,97683.81
2023-01-17T14:28:47.294Z,97669.06
2023-01-17T14:30:54.445Z,97667.00
2023-01-17T14:33:00.988Z,97663.69
2023-01-17T14:35:04.773Z,97661.50
2023-01-17T14:37:17.691Z,97648.63
2023-01-17T14:39:24.143Z,97653.38
2023-01-17T14:41:28.956Z,97652.91
2023-01-17T14:43:34.900Z,97660.25
2023-01-17T14:45:37.996Z,97660.34
2023-01-17T14:47:40.259Z,97655.34
2023-01-17T14:49:42.508Z,97659.84
2023-01-17T14:51:57.794Z,97656.06
2023-01-17T14:54:07.403Z,97652.25
2023-01-17T14:56:20.041Z,97652.09
2023-01-17T14:58:26.426Z,97655.78
2023-01-17T15:00:35.151Z,97650.50
2023-01-17T15:02:42.241Z,97643.84
2023-01-17T15:04:45.396Z,97631.47
2023-01-17T15:06:48.219Z,97629.25
2023-01-17T15:08:54.276Z,97629.59
2023-01-17T15:11:00.387Z,97639.28
2023-01-17T15:13:09.184Z,97644.31
2023-01-17T15:15:31.870Z,97638.75
2023-01-17T15:17:34.062Z,97641.81
2023-01-17T15:19:44.043Z,97639.66
2023-01-17T15:21:54.211Z,97632.44
2023-01-17T15:24:03.489Z,97629.66
2023-01-17T15:26:10.491Z,97628.28
2023-01-17T15:28:13.967Z,97627.53
2023-01-17T15:30:16.346Z,97622.59
2023-01-17T15:32:24.441Z,97629.28
2023-01-17T15:34:27.914Z,97623.22
2023-01-17T15:36:34.389Z,97630.28
2023-01-17T15:38:39.556Z,97633.91
2023-01-17T15:40:45.808Z,97614.22
2023-01-17T15:42:51.016Z,97609.69
2023-01-17T15:44:55.971Z,97615.97
2023-01-17T15:46:58.459Z,97608.84
2023-01-17T15:49:29.245Z,97608.97
2023-01-17T15:51:39.186Z,97602.09
2023-01-17T15:53:42.946Z,97595.06
2023-01-17T15:55:48.086Z,97585.91
2023-01-17T15:57:50.473Z,97588.91
2023-01-17T15:59:56.168Z,97577.31
2023-01-17T16:01:58.747Z,97575.09
2023-01-17T16:04:00.744Z,97580.63
2023-01-17T16:06:04.567Z,97591.38
2023-01-17T16:08:06.384Z,97596.03
2023-01-17T16:10:15.889Z,97598.31
2023-01-17T16:12:18.022Z,97599.16
2023-01-17T16:14:19.993Z,97592.97
2023-01-17T16:16:25.970Z,97584.41
2023-01-17T16:18:28.159Z,97593.13
2023-01-17T16:20:59.502Z,97588.16
2023-01-17T16:23:02.106Z,97586.38
2023-01-17T16:25:14.559Z,97588.91
2023-01-17T16:27:16.669Z,97587.22
2023-01-17T16:29:18.528Z,97584.19
2023-01-17T16:31:20.671Z,97584.81
2023-01-17T16:33:22.763Z,97570.72
2023-01-17T16:35:28.476Z,97572.44
2023-01-17T16:37:30.410Z,97571.41
2023-01-17T16:39:32.562Z,97560.44
2023-01-17T16:41:34.887Z,97556.63
2023-01-17T16:43:36.846Z,97552.75
2023-01-17T16:45:47.680Z,97553.56
2023-01-17T16:47:49.941Z,97550.28
2023-01-17T16:49:52.072Z,97555.38
2023-01-17T16:51:54.441Z,97558.75
2023-01-17T16:53:56.461Z,97557.53
2023-01-17T16:56:05.702Z,97549.13
2023-01-17T16:58:07.903Z,97539.22
2023-01-17T17:00:12.233Z,97545.16
2023-01-17T17:02:15.351Z,97548.44
2023-01-17T17:04:17.482Z,97545.53
2023-01-17T17:06:19.973Z,97544.66
2023-01-17T17:08:22.482Z,97540.00
2023-01-17T17:10:25.409Z,97544.66
2023-01-17T17:12:27.303Z,97535.28
2023-01-17T17:14:29.519Z,97535.16
2023-01-17T17:16:31.587Z,97520.94
2023-01-17T17:18:33.742Z,97512.09
2023-01-17T17:20:35.848Z,97516.28
2023-01-17T17:22:38.241Z,97511.38
2023-01-17T17:24:40.153Z,97504.53
2023-01-17T17:26:42.263Z,97501.13
2023-01-17T17:28:44.249Z,97492.91
2023-01-17T17:30:46.289Z,97486.91
2023-01-17T17:32:48.359Z,97479.38
2023-01-17T17:34:53.017Z,97476.03
2023-01-17T17:36:55.466Z,97476.16
2023-01-17T17:38:58.487Z,97456.25
2023-01-17T17:41:10.002Z,97447.09
2023-01-17T17:43:12.055Z,97442.41
2023-01-17T17:45:14.037Z,97441.78
2023-01-17T17:47:16.473Z,97438.84
2023-01-17T17:49:18.589Z,97421.34
2023-01-17T17:51:30.338Z,97417.06
2023-01-17T17:53:32.877Z,97400.94
2023-01-17T17:55:36.474Z,97395.31
2023-01-17T17:57:38.441Z,97379.41
2023-01-17T17:59:40.607Z,97388.00
2023-01-17T18:01:42.638Z,97379.28
2023-01-17T18:03:45.071Z,97377.59
2023-01-17T18:05:47.060Z,97367.91
2023-01-17T18:07:50.982Z,97359.59
2023-01-17T18:09:54.189Z,97348.84
2023-01-17T18:11:57.789Z,97350.78
2023-01-17T18:14:02.225Z,97343.13
2023-01-17T18:16:07.930Z,97328.78
2023-01-17T18:18:10.028Z,97319.53
2023-01-17T18:20:12.225Z,97315.25
2023-01-17T18:22:15.171Z,97301.78
2023-01-17T18:24:19.288Z,97297.59
2023-01-17T18:26:25.418Z,97292.72
2023-01-17T18:28:30.434Z,97280.72
2023-01-17T18:30:38.535Z,97299.53
2023-01-17T18:32:42.022Z,97298.38
2023-01-17T18:34:44.137Z,97293.13
2023-01-17T18:36:46.581Z,97283.34
2023-01-17T18:38:51.156Z,97281.75
2023-01-17T18:40:53.250Z,97277.59
2023-01-17T18:42:55.693Z,97269.53
2023-01-17T18:44:58.080Z,97263.91
2023-01-17T18:47:04.709Z,97270.47
2023-01-17T18:49:07.384Z,97260.06
2023-01-17T18:51:12.447Z,97259.38
2023-01-17T18:53:14.537Z,97248.63
2023-01-17T18:55:16.902Z,97242.91
2023-01-17T18:57:18.943Z,97242.91
2023-01-17T18:59:23.555Z,97237.53
2023-01-17T19:01:28.592Z,97241.78
2023-01-17T19:03:31.626Z,97226.63
2023-01-17T19:05:36.238Z,97218.09
2023-01-17T19:07:38.134Z,97214.56
2023-01-17T19:09:40.128Z,97206.75
2023-01-17T19:11:44.702Z,97203.31
2023-01-17T19:13:48.558Z,97199.88
2023-01-17T19:15:50.544Z,97208.19
2023-01-17T19:17:52.487Z,97199.28
2023-01-17T19:19:56.553Z,97193.06
2023-01-17T19:21:59.056Z,97179.88
2023-01-17T19:24:01.596Z,97172.69
2023-01-17T19:26:05.159Z,97165.47
2023-01-17T19:28:08.491Z,97156.66
2023-01-17T19:30:11.307Z,97159.34
2023-01-17T19:32:13.274Z,97156.81
2023-01-17T19:34:16.150Z,97153.13
2023-01-17T19:36:20.928Z,97149.00
2023-01-17T19:38:22.888Z,97153.22
2023-01-17T19:40:25.928Z,97156.53
2023-01-17T19:42:28.757Z,97148.25
2023-01-17T19:44:30.807Z,97151.88
2023-01-17T19:46:33.328Z,97161.94
2023-01-17T19:48:37.460Z,97157.28
2023-01-17T19:50:39.374Z,97156.66
2023-01-17T19:52:42.257Z,97149.75
2023-01-17T19:54:44.281Z,97136.06
2023-01-17T19:56:46.114Z,97133.47
2023-01-17T19:58:48.451Z,97124.22
2023-01-17T20:00:52.264Z,97120.19
2023-01-17T20:02:54.363Z,97119.94
2023-01-17T20:04:56.267Z,97116.41
2023-01-17T20:06:58.254Z,97109.06
2023-01-17T20:09:00.107Z,97107.72
2023-01-17T20:11:07.503Z,97104.66
2023-01-17T20:13:09.299Z,97099.00
2023-01-17T20:15:11.180Z,97104.84
2023-01-17T20:17:13.056Z,97106.31
2023-01-17T20:19:15.437Z,97109.06
2023-01-17T20:21:22.733Z,97106.38
2023-01-17T20:23:24.671Z,97097.91
2023-01-17T20:25:27.809Z,97088.72
2023-01-17T20:27:29.565Z,97084.03
2023-01-17T20:29:31.340Z,97069.47
2023-01-17T20:31:33.169Z,97061.84
2023-01-17T20:33:36.858Z,97052.47
2023-01-17T20:35:38.791Z,97058.47
2023-01-17T20:37:40.672Z,97047.50
2023-01-17T20:39:42.446Z,97048.81
2023-01-17T20:41:49.413Z,97028.19
2023-01-17T20:43:55.952Z,97039.53
2023-01-17T20:45:58.420Z,97024.81
2023-01-17T20:48:00.786Z,97020.19
2023-01-17T20:50:04.110Z,97012.97
2023-01-17T20:52:06.408Z,97004.84
2023-01-17T20:54:13.782Z,96994.97
2023-01-17T20:56:15.797Z,97007.94
2023-01-17T20:58:18.155Z,97012.22
2023-01-17T21:00:20.496Z,96995.63
2023-01-17T21:02:22.402Z,97000.59
2023-01-17T21:04:26.071Z,96981.88
2023-01-17T21:06:28.443Z,96998.22
2023-01-17T21:08:31.890Z,96989.25
2023-01-17T21:10:33.710Z,97040.78
2023-01-17T21:12:35.690Z,96988.00
2023-01-17T21:14:38.584Z,96995.25
2023-01-17T21:16:40.544Z,96973.34
2023-01-17T21:18:43.441Z,96985.31
2023-01-17T21:20:45.995Z,96975.88
2023-01-17T21:22:48.190Z,96990.22
2023-01-17T21:24:50.144Z,96978.84
2023-01-17T21:26:52.682Z,96968.22
2023-01-17T21:28:55.360Z,96974.63
2023-01-17T21:30:57.770Z,96954.47
2023-01-17T21:32:59.901Z,96965.25
2023-01-17T21:35:01.673Z,96959.59
2023-01-17T21:37:03.542Z,96960.03
2023-01-17T21:39:08.473Z,96978.75
2023-01-17T21:41:10.296Z,96950.66
2023-01-17T21:43:12.493Z,96996.22
2023-01-17T21:45:14.339Z,96966.84
2023-01-17T21:47:16.036Z,96973.38
2023-01-17T21:49:19.133Z,96935.19
2023-01-17T21:51:21.920Z,96952.94
2023-01-17T21:53:23.693Z,96954.19
2023-01-17T21:55:44.049Z,96930.94
2023-01-17T21:58:04.475Z,96976.06
2023-01-17T22:00:10.666Z,96947.66
2023-01-17T22:02:17.371Z,96948.81
2023-01-17T22:04:20.142Z,96956.50
2023-01-17T22:06:24.461Z,96989.44
2023-01-17T22:08:31.932Z,96952.53
2023-01-17T22:10:44.704Z,96944.69
2023-01-17T22:12:46.960Z,96939.88
2023-01-17T22:14:49.401Z,96949.66
2023-01-17T22:16:51.824Z,96946.66
2023-01-17T22:18:53.962Z,96969.41
2023-01-17T22:20:57.535Z,96946.25
2023-01-17T22:23:00.417Z,96958.59
2023-01-17T22:25:02.365Z,96937.72
2023-01-17T22:27:04.532Z,96941.84
2023-01-17T22:29:06.704Z,96936.72
2023-01-17T22:31:23.830Z,96982.59
2023-01-17T22:33:25.737Z,96951.06
2023-01-17T22:35:27.784Z,96951.22
2023-01-17T22:37:29.893Z,96947.22
2023-01-17T22:39:31.967Z,96933.28
2023-01-17T22:41:35.274Z,96955.19
2023-01-17T22:43:39.456Z,96945.94
2023-01-17T22:45:41.442Z,96930.28
2023-01-17T22:47:43.579Z,96932.84
2023-01-17T22:49:45.619Z,96922.59
2023-01-17T22:51:47.583Z,96953.44
2023-01-17T22:53:57.818Z,96925.88
2023-01-17T22:56:05.334Z,96953.06
2023-01-17T22:58:07.452Z,96953.31
2023-01-17T23:00:14.626Z,96973.38
2023-01-17T23:02:18.481Z,96973.38
2023-01-17T23:04:20.643Z,96979.63
2023-01-17T23:06:27.368Z,96990.56
2023-01-17T23:08:29.777Z,97003.50
2023-01-17T23:10:50.497Z,96999.50
2023-01-17T23:12:52.420Z,97011.72
2023-01-17T23:15:13.144Z,97047.53
2023-01-17T23:17:44.449Z,97011.47
2023-01-17T23:19:51.152Z,97014.13
2023-01-17T23:22:14.757Z,97045.47
2023-01-17T23:24:16.534Z,97021.03
2023-01-17T23:26:18.241Z,97020.75
2023-01-17T23:28:21.023Z,97037.38
2023-01-17T23:30:35.464Z,97022.34
2023-01-17T23:32:44.452Z,97060.78
2023-01-17T23:34:47.914Z,97007.84
2023-01-17T23:36:49.978Z,97027.13
2023-01-17T23:38:51.803Z,97017.34
2023-01-17T23:41:17.608Z,97037.91
2023-01-17T23:43:25.095Z,97009.66
2023-01-17T23:45:27.408Z,97021.31
2023-01-17T23:47:29.175Z,97025.97
2023-01-17T23:49:31.496Z,97044.84
2023-01-17T23:51:33.253Z,97025.97
2023-01-17T23:53:36.860Z,97041.00
2023-01-17T23:55:40.797Z,97014.19
2023-01-17T23:57:42.555Z,97015.59
2023-01-17T23:59:44.949Z,97027.22
